createdAt,value
2018-10-17T00:00:26.696Z,99.99
2018-10-17T00:01:35.333Z,99.99
2018-10-17T00:02:43.968Z,99.99
2018-10-17T00:03:52.596Z,99.99
2018-10-17T00:05:01.328Z,99.99
2018-10-17T00:06:09.868Z,99.99
2018-10-17T00:07:18.501Z,99.99
2018-10-17T00:08:27.139Z,99.99
2018-10-17T00:09:36.035Z,99.99
2018-10-17T00:10:44.933Z,99.99
2018-10-17T00:11:53.567Z,99.99
2018-10-17T00:13:02.224Z,99.99
2018-10-17T00:14:10.832Z,99.99
2018-10-17T00:15:19.470Z,99.99
2018-10-17T00:16:28.112Z,99.99
2018-10-17T00:17:36.745Z,99.99
2018-10-17T00:18:45.370Z,99.99
2018-10-17T00:19:54.003Z,99.99
2018-10-17T00:21:02.637Z,99.99
2018-10-17T00:22:11.539Z,99.99
2018-10-17T00:23:20.168Z,99.99
2018-10-17T00:24:28.803Z,99.99
2018-10-17T00:25:37.438Z,99.99
2018-10-17T00:26:46.079Z,99.99
2018-10-17T00:27:54.974Z,99.99
2018-10-17T00:29:03.912Z,99.99
2018-10-17T00:30:12.499Z,99.99
2018-10-17T00:31:21.135Z,99.99
2018-10-17T00:32:30.088Z,99.99
2018-10-17T00:33:38.672Z,99.99
2018-10-17T00:34:47.309Z,99.99
2018-10-17T00:35:55.939Z,99.99
2018-10-17T00:37:04.615Z,99.99
2018-10-17T00:38:13.816Z,99.99
2018-10-17T00:39:22.449Z,99.99
2018-10-17T00:40:31.174Z,99.99
2018-10-17T00:41:39.717Z,99.99
2018-10-17T00:42:48.357Z,99.99
2018-10-17T00:43:56.998Z,99.99
2018-10-17T00:45:06.156Z,99.99
2018-10-17T00:46:14.789Z,99.99
2018-10-17T00:47:23.423Z,99.99
2018-10-17T00:48:32.061Z,99.99
2018-10-17T00:49:40.698Z,99.99
2018-10-17T00:50:49.327Z,99.99
2018-10-17T00:51:58.228Z,99.99
2018-10-17T00:53:06.956Z,99.99
2018-10-17T00:54:15.494Z,99.99
2018-10-17T00:55:24.136Z,99.99
2018-10-17T00:56:32.770Z,99.99
2018-10-17T00:57:41.675Z,99.99
2018-10-17T00:58:50.305Z,99.99
2018-10-17T00:59:58.944Z,99.99
2018-10-17T01:01:07.617Z,99.99
2018-10-17T01:02:16.637Z,99.99
2018-10-17T01:03:25.274Z,99.99
2018-10-17T01:04:34.181Z,99.99
2018-10-17T01:05:42.817Z,99.99
2018-10-17T01:06:51.458Z,99.99
2018-10-17T01:08:00.382Z,99.99
2018-10-17T01:09:09.012Z,99.99
2018-10-17T01:10:17.911Z,99.99
2018-10-17T01:11:26.811Z,99.99
2018-10-17T01:12:35.446Z,99.99
2018-10-17T01:13:44.079Z,99.99
2018-10-17T01:14:52.969Z,99.99
2018-10-17T01:16:01.601Z,99.99
2018-10-17T01:17:10.358Z,99.99
2018-10-17T01:18:18.869Z,99.99
2018-10-17T01:19:27.505Z,99.99
2018-10-17T01:20:36.400Z,99.99
2018-10-17T01:21:45.040Z,99.99
2018-10-17T01:22:53.728Z,99.99
2018-10-17T01:24:02.305Z,99.99
2018-10-17T01:25:11.240Z,99.99
2018-10-17T01:26:19.840Z,99.99
2018-10-17T01:27:28.477Z,99.99
2018-10-17T01:28:37.109Z,99.99
2018-10-17T01:29:45.743Z,99.99
2018-10-17T01:30:54.396Z,99.99
2018-10-17T01:32:03.010Z,99.99
2018-10-17T01:33:11.644Z,99.99
2018-10-17T01:34:20.276Z,99.99
2018-10-17T01:35:28.911Z,99.99
2018-10-17T01:36:37.551Z,99.99
2018-10-17T01:37:46.177Z,99.99
2018-10-17T01:38:54.852Z,99.99
2018-10-17T01:40:03.447Z,99.99
2018-10-17T01:41:12.165Z,99.99
2018-10-17T01:42:21.201Z,99.99
2018-10-17T01:43:29.839Z,99.99
2018-10-17T01:44:38.737Z,99.99
2018-10-17T01:45:47.364Z,99.99
2018-10-17T01:46:56.330Z,99.99
2018-10-17T01:48:04.933Z,99.99
2018-10-17T01:49:13.620Z,99.99
2018-10-17T01:50:22.197Z,99.99
2018-10-17T01:51:30.839Z,99.99
2018-10-17T01:52:39.467Z,99.99
2018-10-17T01:53:48.379Z,99.99
2018-10-17T01:54:57.021Z,99.99
2018-10-17T01:56:05.641Z,99.99
2018-10-17T01:57:14.276Z,99.99
2018-10-17T01:58:22.919Z,99.99
2018-10-17T01:59:31.820Z,99.99
2018-10-17T02:00:40.445Z,99.99
2018-10-17T02:01:49.078Z,99.99
2018-10-17T02:02:57.983Z,99.99
2018-10-17T02:04:06.625Z,99.99
2018-10-17T02:05:15.344Z,99.99
2018-10-17T02:06:23.892Z,99.99
2018-10-17T02:07:32.517Z,99.99
2018-10-17T02:08:41.160Z,99.99
2018-10-17T02:09:50.055Z,99.99
2018-10-17T02:10:58.975Z,99.99
2018-10-17T02:12:08.199Z,99.99
2018-10-17T02:13:17.236Z,99.99
2018-10-17T02:14:26.130Z,99.99
2018-10-17T02:15:34.764Z,99.99
2018-10-17T02:16:43.392Z,99.99
2018-10-17T02:17:52.027Z,99.99
2018-10-17T02:19:01.013Z,99.99
2018-10-17T02:20:09.572Z,99.99
2018-10-17T02:21:18.469Z,99.99
2018-10-17T02:22:27.091Z,99.99
2018-10-17T02:23:35.726Z,99.99
2018-10-17T02:24:44.356Z,99.99
2018-10-17T02:25:52.997Z,99.99
2018-10-17T02:27:01.621Z,99.99
2018-10-17T02:28:10.258Z,99.99
2018-10-17T02:29:18.887Z,99.99
2018-10-17T02:30:27.529Z,99.99
2018-10-17T02:31:36.685Z,99.99
2018-10-17T02:32:45.596Z,99.99
2018-10-17T02:33:54.489Z,99.99
2018-10-17T02:35:03.206Z,99.99
2018-10-17T02:36:11.767Z,99.99
2018-10-17T02:37:20.808Z,99.99
2018-10-17T02:38:29.441Z,99.99
2018-10-17T02:39:38.215Z,99.99
2018-10-17T02:40:46.722Z,99.99
2018-10-17T02:41:55.350Z,99.99
2018-10-17T02:43:04.006Z,99.99
2018-10-17T02:44:12.615Z,99.99
2018-10-17T02:45:21.256Z,99.99
2018-10-17T02:46:29.884Z,99.99
2018-10-17T02:47:38.523Z,99.99
2018-10-17T02:48:47.161Z,99.99
2018-10-17T02:49:55.792Z,99.99
2018-10-17T02:51:04.429Z,99.99
2018-10-17T02:52:13.325Z,99.99
2018-10-17T02:53:22.240Z,99.99
2018-10-17T02:54:30.877Z,99.99
2018-10-17T02:55:39.515Z,99.99
2018-10-17T02:56:48.419Z,99.99
2018-10-17T02:57:57.061Z,99.99
2018-10-17T02:59:06.386Z,99.99
2018-10-17T03:00:15.991Z,99.99
2018-10-17T03:01:24.631Z,99.99
2018-10-17T03:02:33.270Z,99.99
2018-10-17T03:03:41.916Z,99.99
2018-10-17T03:04:50.560Z,99.99
2018-10-17T03:05:59.202Z,99.99
2018-10-17T03:07:07.900Z,99.99
2018-10-17T03:08:16.489Z,99.99
2018-10-17T03:09:25.390Z,99.99
2018-10-17T03:10:34.306Z,99.99
2018-10-17T03:11:42.945Z,99.99
2018-10-17T03:12:51.664Z,99.99
2018-10-17T03:14:00.239Z,99.99
2018-10-17T03:15:09.150Z,99.99
2018-10-17T03:16:17.794Z,99.99
2018-10-17T03:17:26.434Z,99.99
2018-10-17T03:18:35.339Z,99.99
2018-10-17T03:19:44.515Z,99.99
2018-10-17T03:20:53.434Z,99.99
2018-10-17T03:22:02.322Z,99.99
2018-10-17T03:23:11.437Z,99.99
2018-10-17T03:24:20.436Z,99.99
2018-10-17T03:25:29.083Z,99.99
2018-10-17T03:26:37.722Z,99.99
2018-10-17T03:27:46.910Z,99.99
2018-10-17T03:28:55.548Z,99.99
2018-10-17T03:30:04.176Z,99.99
2018-10-17T03:31:13.747Z,99.99
2018-10-17T03:32:22.383Z,99.99
2018-10-17T03:33:31.023Z,99.99
2018-10-17T03:34:39.666Z,99.99
2018-10-17T03:35:48.651Z,99.99
2018-10-17T03:36:57.269Z,99.99
2018-10-17T03:38:05.859Z,99.99
2018-10-17T03:39:14.776Z,99.99
2018-10-17T03:40:23.680Z,99.99
2018-10-17T03:41:32.325Z,99.99
2018-10-17T03:42:40.966Z,99.99
2018-10-17T03:43:49.602Z,99.99
2018-10-17T03:44:58.518Z,99.99
2018-10-17T03:46:07.160Z,99.99
2018-10-17T03:47:15.982Z,99.99
2018-10-17T03:48:24.440Z,99.99
2018-10-17T03:49:33.188Z,99.99
2018-10-17T03:50:42.003Z,99.99
2018-10-17T03:51:50.648Z,99.99
2018-10-17T03:52:59.321Z,99.99
2018-10-17T03:54:07.924Z,99.99
2018-10-17T03:55:16.979Z,99.99
2018-10-17T03:56:25.547Z,99.99
2018-10-17T03:57:34.469Z,99.99
2018-10-17T03:58:43.106Z,99.99
2018-10-17T03:59:52.015Z,99.99
2018-10-17T04:01:00.697Z,99.99
2018-10-17T04:02:09.303Z,99.99
2018-10-17T04:03:18.367Z,99.99
2018-10-17T04:04:27.014Z,99.99
2018-10-17T04:05:35.921Z,99.99
2018-10-17T04:06:44.581Z,99.99
2018-10-17T04:07:53.215Z,99.99
2018-10-17T04:09:01.852Z,99.99
2018-10-17T04:10:10.801Z,99.99
2018-10-17T04:11:19.504Z,99.99
2018-10-17T04:12:28.051Z,99.99
2018-10-17T04:13:36.949Z,99.99
2018-10-17T04:14:45.595Z,99.99
2018-10-17T04:15:54.500Z,99.99
2018-10-17T04:17:03.223Z,99.99
2018-10-17T04:18:11.790Z,99.99
2018-10-17T04:19:20.491Z,99.99
2018-10-17T04:20:29.352Z,99.99
2018-10-17T04:21:38.005Z,99.99
2018-10-17T04:22:46.779Z,99.99
2018-10-17T04:23:55.289Z,99.99
2018-10-17T04:25:03.995Z,99.99
2018-10-17T04:26:12.563Z,99.99
2018-10-17T04:27:21.208Z,99.99
2018-10-17T04:28:29.850Z,99.99
2018-10-17T04:29:38.763Z,99.99
2018-10-17T04:30:47.663Z,99.99
2018-10-17T04:31:56.838Z,99.99
2018-10-17T04:33:05.476Z,99.99
2018-10-17T04:34:14.134Z,99.99
2018-10-17T04:35:23.052Z,99.99
2018-10-17T04:36:31.679Z,99.99
2018-10-17T04:37:40.597Z,99.99
2018-10-17T04:38:49.246Z,99.99
2018-10-17T04:39:57.887Z,99.99
2018-10-17T04:41:06.604Z,99.99
2018-10-17T04:42:15.513Z,99.99
2018-10-17T04:43:24.165Z,99.99
2018-10-17T04:44:32.803Z,99.99
2018-10-17T04:45:41.444Z,99.99
2018-10-17T04:46:50.091Z,99.99
2018-10-17T04:47:58.739Z,99.99
2018-10-17T04:49:07.496Z,99.99
2018-10-17T04:50:16.391Z,99.99
2018-10-17T04:51:25.287Z,99.99
2018-10-17T04:52:34.485Z,99.99
2018-10-17T04:53:43.116Z,99.99
2018-10-17T04:54:52.035Z,99.99
2018-10-17T04:56:00.672Z,99.99
2018-10-17T04:57:09.324Z,99.99
2018-10-17T04:58:17.952Z,99.99
2018-10-17T04:59:26.596Z,99.99
2018-10-17T05:00:35.240Z,99.99
2018-10-17T05:01:43.889Z,99.99
2018-10-17T05:02:52.531Z,99.99
2018-10-17T05:04:01.175Z,99.99
2018-10-17T05:05:09.876Z,99.99
2018-10-17T05:06:18.451Z,99.99
2018-10-17T05:07:27.217Z,99.99
2018-10-17T05:08:35.747Z,99.99
2018-10-17T05:09:44.394Z,99.99
2018-10-17T05:10:53.032Z,99.99
2018-10-17T05:12:01.680Z,99.99
2018-10-17T05:13:10.478Z,99.99
2018-10-17T05:14:19.521Z,99.99
2018-10-17T05:15:28.155Z,99.99
2018-10-17T05:16:36.806Z,99.99
2018-10-17T05:17:45.450Z,99.99
2018-10-17T05:18:54.103Z,99.99
2018-10-17T05:20:03.281Z,99.99
2018-10-17T05:21:11.923Z,99.99
2018-10-17T05:22:20.569Z,99.99
2018-10-17T05:23:29.477Z,99.99
2018-10-17T05:24:38.385Z,99.99
2018-10-17T05:25:47.286Z,99.99
2018-10-17T05:26:55.934Z,99.99
2018-10-17T05:28:04.572Z,99.99
2018-10-17T05:29:13.343Z,99.99
2018-10-17T05:30:21.855Z,99.99
2018-10-17T05:31:30.502Z,99.99
2018-10-17T05:32:39.138Z,99.99
2018-10-17T05:33:47.792Z,99.99
2018-10-17T05:34:56.473Z,99.99
2018-10-17T05:36:05.403Z,99.99
2018-10-17T05:37:14.140Z,99.99
2018-10-17T05:38:23.147Z,99.99
2018-10-17T05:39:31.777Z,99.99
2018-10-17T05:40:40.416Z,99.99
2018-10-17T05:41:49.058Z,99.99
2018-10-17T05:42:57.716Z,99.99
2018-10-17T05:44:06.345Z,99.99
2018-10-17T05:45:14.990Z,99.99
2018-10-17T05:46:23.893Z,99.99
2018-10-17T05:47:32.533Z,99.99
2018-10-17T05:48:41.178Z,99.99
2018-10-17T05:49:49.820Z,99.99
2018-10-17T05:50:58.463Z,99.99
2018-10-17T05:52:07.258Z,99.99
2018-10-17T05:53:16.303Z,99.99
2018-10-17T05:54:24.801Z,99.99
2018-10-17T05:55:33.495Z,99.99
2018-10-17T05:56:42.461Z,99.99
2018-10-17T05:57:51.104Z,99.99
2018-10-17T05:58:59.782Z,99.99
2018-10-17T06:00:08.388Z,99.99
2018-10-17T06:01:17.152Z,99.99
2018-10-17T06:02:26.000Z,99.99
2018-10-17T06:03:35.458Z,99.99
2018-10-17T06:04:44.100Z,99.99
2018-10-17T06:05:52.751Z,99.99
2018-10-17T06:07:01.420Z,99.99
2018-10-17T06:08:10.038Z,99.99
2018-10-17T06:09:18.678Z,99.99
2018-10-17T06:10:27.761Z,99.99
2018-10-17T06:11:36.754Z,99.99
2018-10-17T06:12:45.399Z,99.99
2018-10-17T06:13:54.038Z,99.99
2018-10-17T06:15:02.686Z,99.99
2018-10-17T06:16:11.594Z,99.99
2018-10-17T06:17:20.567Z,99.99
2018-10-17T06:18:29.137Z,99.99
2018-10-17T06:19:37.776Z,99.99
2018-10-17T06:20:46.423Z,99.99
2018-10-17T06:21:55.066Z,99.99
2018-10-17T06:23:03.717Z,99.99
2018-10-17T06:24:12.349Z,99.99
2018-10-17T06:25:21.002Z,99.99
2018-10-17T06:26:29.911Z,99.99
2018-10-17T06:27:38.557Z,99.99
2018-10-17T06:28:47.196Z,99.99
2018-10-17T06:29:55.842Z,99.99
2018-10-17T06:31:04.565Z,99.99
2018-10-17T06:32:13.131Z,99.99
2018-10-17T06:33:21.769Z,99.99
2018-10-17T06:34:30.451Z,99.99
2018-10-17T06:35:39.053Z,99.99
2018-10-17T06:36:47.697Z,99.99
2018-10-17T06:37:56.597Z,99.99
2018-10-17T06:39:05.236Z,99.99
2018-10-17T06:40:13.879Z,99.99
2018-10-17T06:41:22.518Z,99.99
2018-10-17T06:42:31.165Z,99.99
2018-10-17T06:43:40.294Z,99.99
2018-10-17T06:44:49.847Z,99.99
2018-10-17T06:45:58.500Z,99.99
2018-10-17T06:47:07.147Z,99.99
2018-10-17T06:48:15.776Z,99.99
2018-10-17T06:49:24.416Z,99.99
2018-10-17T06:50:33.056Z,99.99
2018-10-17T06:51:41.708Z,99.99
2018-10-17T06:52:50.608Z,99.99
2018-10-17T06:54:00.988Z,99.99
2018-10-17T06:55:09.518Z,99.99
2018-10-17T06:56:18.503Z,99.99
2018-10-17T06:57:27.166Z,99.99
2018-10-17T06:58:35.817Z,99.99
2018-10-17T06:59:44.725Z,99.99
2018-10-17T07:00:53.632Z,99.99
2018-10-17T07:02:02.881Z,99.99
2018-10-17T07:03:12.111Z,99.99
2018-10-17T07:04:20.755Z,99.99
2018-10-17T07:05:29.392Z,99.99
2018-10-17T07:06:38.044Z,99.99
2018-10-17T07:07:46.683Z,99.99
2018-10-17T07:08:55.327Z,99.99
2018-10-17T07:10:03.961Z,99.99
2018-10-17T07:11:12.688Z,99.99
2018-10-17T07:12:21.717Z,99.99
2018-10-17T07:13:30.362Z,99.99
2018-10-17T07:14:39.009Z,99.99
2018-10-17T07:15:47.682Z,99.99
2018-10-17T07:16:56.362Z,99.99
2018-10-17T07:18:04.928Z,99.99
2018-10-17T07:19:14.571Z,99.99
2018-10-17T07:20:23.136Z,99.99
2018-10-17T07:21:32.043Z,99.99
2018-10-17T07:22:40.950Z,99.99
2018-10-17T07:23:49.601Z,99.99
2018-10-17T07:24:58.266Z,99.99
2018-10-17T07:26:07.244Z,99.99
2018-10-17T07:27:15.884Z,99.99
2018-10-17T07:28:24.536Z,99.99
2018-10-17T07:29:33.643Z,99.99
2018-10-17T07:30:42.678Z,99.99
2018-10-17T07:31:51.317Z,99.99
2018-10-17T07:32:59.954Z,99.99
2018-10-17T07:34:08.606Z,99.99
2018-10-17T07:35:17.243Z,99.99
2018-10-17T07:36:25.891Z,99.99
2018-10-17T07:37:34.524Z,99.99
2018-10-17T07:38:43.177Z,99.99
2018-10-17T07:39:51.817Z,99.99
2018-10-17T07:41:00.466Z,99.99
2018-10-17T07:42:09.141Z,99.99
2018-10-17T07:43:18.138Z,99.99
2018-10-17T07:44:27.037Z,99.99
2018-10-17T07:45:35.777Z,99.99
2018-10-17T07:46:44.321Z,99.99
2018-10-17T07:47:53.045Z,99.99
2018-10-17T07:49:02.208Z,99.99
2018-10-17T07:50:11.640Z,99.99
2018-10-17T07:51:20.286Z,99.99
2018-10-17T07:52:28.927Z,99.99
2018-10-17T07:53:37.658Z,99.99
2018-10-17T07:54:46.213Z,99.99
2018-10-17T07:55:54.864Z,99.99
2018-10-17T07:57:03.500Z,99.99
2018-10-17T07:58:12.150Z,99.99
2018-10-17T07:59:21.100Z,99.99
2018-10-17T08:00:30.131Z,99.99
2018-10-17T08:01:38.613Z,99.99
2018-10-17T08:02:47.259Z,99.99
2018-10-17T08:03:55.902Z,99.99
2018-10-17T08:05:04.550Z,99.99
2018-10-17T08:06:13.788Z,99.99
2018-10-17T08:07:22.360Z,99.99
2018-10-17T08:08:31.000Z,99.99
2018-10-17T08:09:39.913Z,99.99
2018-10-17T08:10:48.584Z,99.99
2018-10-17T08:11:57.257Z,99.99
2018-10-17T08:13:05.858Z,99.99
2018-10-17T08:14:15.388Z,99.99
2018-10-17T08:15:24.600Z,99.99
2018-10-17T08:16:33.242Z,99.99
2018-10-17T08:17:41.889Z,99.99
2018-10-17T08:18:50.524Z,99.99
2018-10-17T08:19:59.173Z,99.99
2018-10-17T08:21:07.850Z,99.99
2018-10-17T08:22:16.463Z,99.99
2018-10-17T08:23:25.105Z,99.99
2018-10-17T08:24:33.752Z,99.99
2018-10-17T08:25:42.398Z,99.99
2018-10-17T08:26:51.045Z,99.99
2018-10-17T08:27:59.698Z,99.99
2018-10-17T08:29:08.332Z,99.99
2018-10-17T08:30:17.070Z,99.99
2018-10-17T08:31:26.070Z,99.99
2018-10-17T08:32:34.978Z,99.99
2018-10-17T08:33:43.619Z,99.99
2018-10-17T08:34:52.262Z,99.99
2018-10-17T08:36:01.836Z,99.99
2018-10-17T08:37:10.524Z,99.99
2018-10-17T08:38:19.891Z,99.99
2018-10-17T08:39:28.803Z,99.99
2018-10-17T08:40:37.724Z,99.99
2018-10-17T08:41:46.364Z,99.99
2018-10-17T08:42:55.274Z,99.99
2018-10-17T08:44:04.256Z,99.99
2018-10-17T08:45:12.933Z,99.99
2018-10-17T08:46:21.490Z,99.99
2018-10-17T08:47:30.130Z,99.99
2018-10-17T08:48:38.785Z,99.99
2018-10-17T08:49:47.708Z,99.99
2018-10-17T08:50:56.383Z,99.99
2018-10-17T08:52:05.352Z,99.99
2018-10-17T08:53:14.027Z,99.99
2018-10-17T08:54:22.678Z,99.99
2018-10-17T08:55:31.327Z,99.99
2018-10-17T08:56:39.966Z,99.99
2018-10-17T08:57:48.661Z,99.99
2018-10-17T08:58:57.256Z,99.99
2018-10-17T09:00:06.177Z,99.99
2018-10-17T09:01:14.820Z,99.99
2018-10-17T09:02:23.466Z,99.99
2018-10-17T09:03:32.108Z,99.99
2018-10-17T09:04:40.751Z,99.99
2018-10-17T09:05:49.400Z,99.99
2018-10-17T09:06:58.310Z,99.99
2018-10-17T09:08:06.983Z,99.99
2018-10-17T09:09:15.659Z,99.99
2018-10-17T09:10:24.364Z,99.99
2018-10-17T09:11:33.357Z,99.99
2018-10-17T09:12:42.078Z,99.99
2018-10-17T09:13:50.892Z,99.99
2018-10-17T09:14:59.838Z,99.99
2018-10-17T09:16:08.769Z,99.99
2018-10-17T09:17:19.250Z,99.99
2018-10-17T09:18:27.892Z,99.99
2018-10-17T09:19:36.727Z,99.99
2018-10-17T09:20:45.416Z,99.99
2018-10-17T09:21:54.222Z,99.99
2018-10-17T09:23:02.479Z,99.99
2018-10-17T09:24:11.507Z,99.99
2018-10-17T09:25:20.634Z,99.99
2018-10-17T09:26:29.447Z,99.99
2018-10-17T09:27:38.097Z,99.99
2018-10-17T09:28:46.736Z,99.99
2018-10-17T09:29:55.417Z,99.99
2018-10-17T09:31:04.396Z,99.99
2018-10-17T09:32:13.045Z,99.99
2018-10-17T09:33:21.687Z,99.99
2018-10-17T09:34:30.336Z,99.99
2018-10-17T09:35:39.019Z,99.99
2018-10-17T09:36:48.519Z,99.99
2018-10-17T09:37:57.161Z,99.63
2018-10-17T09:39:05.811Z,99.53
2018-10-17T09:40:14.489Z,99.99
2018-10-17T09:41:23.096Z,99.99
2018-10-17T09:42:32.019Z,99.99
2018-10-17T09:43:40.662Z,99.15
2018-10-17T09:44:49.314Z,98.86
2018-10-17T09:45:58.512Z,98.96
2018-10-17T09:47:07.164Z,99.82
2018-10-17T09:48:15.845Z,99.99
2018-10-17T09:49:24.452Z,99.99
2018-10-17T09:50:33.091Z,99.99
2018-10-17T09:51:41.747Z,99.99
2018-10-17T09:52:50.660Z,99.29
2018-10-17T09:53:59.322Z,98.53
2018-10-17T09:55:07.945Z,97.28
2018-10-17T09:56:16.590Z,98.53
2018-10-17T09:57:25.238Z,99.2
2018-10-17T09:58:33.887Z,97.95
2018-10-17T09:59:42.535Z,98.19
2018-10-17T10:00:51.173Z,98.33
2018-10-17T10:01:59.821Z,98.14
2018-10-17T10:03:08.742Z,98.19
2018-10-17T10:04:17.508Z,97.38
2018-10-17T10:05:26.038Z,95.26
2018-10-17T10:06:34.687Z,96.27
2018-10-17T10:07:43.332Z,96.66
2018-10-17T10:08:51.990Z,97.52
2018-10-17T10:10:00.680Z,96.18
2018-10-17T10:11:09.329Z,96.47
2018-10-17T10:12:18.560Z,95.89
2018-10-17T10:13:27.538Z,93.87
2018-10-17T10:14:36.185Z,94.26
2018-10-17T10:15:45.088Z,94.26
2018-10-17T10:16:53.749Z,94.45
2018-10-17T10:18:02.382Z,94.16
2018-10-17T10:19:11.037Z,95.12
2018-10-17T10:20:19.946Z,94.83
2018-10-17T10:21:28.596Z,92.91
2018-10-17T10:22:37.232Z,92.77
2018-10-17T10:23:46.516Z,93.1
2018-10-17T10:24:56.100Z,91.76
2018-10-17T10:26:04.691Z,94.31
2018-10-17T10:27:13.327Z,93.63
2018-10-17T10:28:22.402Z,94.4
2018-10-17T10:29:31.441Z,94.88
2018-10-17T10:30:40.109Z,94.31
2018-10-17T10:31:48.791Z,94.49
2018-10-17T10:32:57.439Z,94.11
2018-10-17T10:34:06.488Z,94.01
2018-10-17T10:35:15.085Z,92.38
2018-10-17T10:36:23.734Z,93.82
2018-10-17T10:37:32.384Z,94.31
2018-10-17T10:38:41.054Z,91.85
2018-10-17T10:39:49.700Z,92.48
2018-10-17T10:40:58.355Z,92.52
2018-10-17T10:42:07.038Z,92.33
2018-10-17T10:43:15.638Z,91.85
2018-10-17T10:44:24.444Z,91.56
2018-10-17T10:45:33.165Z,91.56
2018-10-17T10:46:41.808Z,90.41
2018-10-17T10:47:50.458Z,89.36
2018-10-17T10:48:59.507Z,88.39
2018-10-17T10:50:08.143Z,88.97
2018-10-17T10:51:16.808Z,90.26
2018-10-17T10:52:26.035Z,90.75
2018-10-17T10:53:34.635Z,90.17
2018-10-17T10:54:43.298Z,90.65
2018-10-17T10:55:52.210Z,90.65
2018-10-17T10:57:01.256Z,89.98
2018-10-17T10:58:09.935Z,89.4
2018-10-17T10:59:18.693Z,88.24
2018-10-17T11:00:27.139Z,87.86
2018-10-17T11:01:35.786Z,86.99
2018-10-17T11:02:44.438Z,86.8
2018-10-17T11:03:53.342Z,86.71
2018-10-17T11:05:02.055Z,88.96
2018-10-17T11:06:10.643Z,87.9
2018-10-17T11:07:19.551Z,87.04
2018-10-17T11:08:28.191Z,86.56
2018-10-17T11:09:36.840Z,87.04
2018-10-17T11:10:45.487Z,87.23
2018-10-17T11:11:54.140Z,87.42
2018-10-17T11:13:02.788Z,88.1
2018-10-17T11:14:11.590Z,88.48
2018-10-17T11:15:20.081Z,88.53
2018-10-17T11:16:28.728Z,88.92
2018-10-17T11:17:37.379Z,89.01
2018-10-17T11:18:46.025Z,89.5
2018-10-17T11:19:54.672Z,90.07
2018-10-17T11:21:03.378Z,90.75
2018-10-17T11:22:12.329Z,90.75
2018-10-17T11:23:21.324Z,90.75
2018-10-17T11:24:29.897Z,91.13
2018-10-17T11:25:38.543Z,89.98
2018-10-17T11:26:47.196Z,88.53
2018-10-17T11:27:55.842Z,89.98
2018-10-17T11:29:04.515Z,90.45
2018-10-17T11:30:13.885Z,89.88
2018-10-17T11:31:22.558Z,88.53
2018-10-17T11:32:31.179Z,89.5
2018-10-17T11:33:39.828Z,89.88
2018-10-17T11:34:48.476Z,90.07
2018-10-17T11:35:57.118Z,90.26
2018-10-17T11:37:05.775Z,90.45
2018-10-17T11:38:14.414Z,90.79
2018-10-17T11:39:23.069Z,91.22
2018-10-17T11:40:31.764Z,90.17
2018-10-17T11:41:40.502Z,90.59
2018-10-17T11:42:49.155Z,90.79
2018-10-17T11:43:58.343Z,90.21
2018-10-17T11:45:07.484Z,89.54
2018-10-17T11:46:16.377Z,89.83
2018-10-17T11:47:25.300Z,88.29
2018-10-17T11:48:33.958Z,84.54
2018-10-17T11:49:42.634Z,84.54
2018-10-17T11:50:51.296Z,84.19
2018-10-17T11:51:59.977Z,82.85
2018-10-17T11:53:08.720Z,82.08
2018-10-17T11:54:17.279Z,80.83
2018-10-17T11:55:25.919Z,81.63
2018-10-17T11:56:34.574Z,81.73
2018-10-17T11:57:43.219Z,81.25
2018-10-17T11:58:51.934Z,82.89
2018-10-17T12:00:00.520Z,83.85
2018-10-17T12:01:09.434Z,83.47
2018-10-17T12:02:18.079Z,83.85
2018-10-17T12:03:26.832Z,83.37
2018-10-17T12:04:35.759Z,84.23
2018-10-17T12:05:44.288Z,84.62
2018-10-17T12:06:53.442Z,83.08
2018-10-17T12:08:02.097Z,80.87
2018-10-17T12:09:10.837Z,82.5
2018-10-17T12:10:19.400Z,83.37
2018-10-17T12:11:28.127Z,81.45
2018-10-17T12:12:37.130Z,81.45
2018-10-17T12:13:46.053Z,81.25
2018-10-17T12:14:54.759Z,79.52
2018-10-17T12:16:03.351Z,82.6
2018-10-17T12:17:11.995Z,83.95
2018-10-17T12:18:20.645Z,83.75
2018-10-17T12:19:29.300Z,83.85
2018-10-17T12:20:37.947Z,83.66
2018-10-17T12:21:46.590Z,83.66
2018-10-17T12:22:55.236Z,83.08
2018-10-17T12:24:04.220Z,82.89
2018-10-17T12:25:12.852Z,81.54
2018-10-17T12:26:21.495Z,81.45
2018-10-17T12:27:30.136Z,81.45
2018-10-17T12:28:38.994Z,81.48
2018-10-17T12:29:47.446Z,81.73
2018-10-17T12:30:56.103Z,81.58
2018-10-17T12:32:04.754Z,82.54
2018-10-17T12:33:13.751Z,82.26
2018-10-17T12:34:22.313Z,82.35
2018-10-17T12:35:30.960Z,82.16
2018-10-17T12:36:39.617Z,80.71
2018-10-17T12:37:48.265Z,81.87
2018-10-17T12:38:57.201Z,81.96
2018-10-17T12:40:05.880Z,81.1
2018-10-17T12:41:14.562Z,79.94
2018-10-17T12:42:23.129Z,79.27
2018-10-17T12:43:31.781Z,80.91
2018-10-17T12:44:40.432Z,81.39
2018-10-17T12:45:49.187Z,81.58
2018-10-17T12:46:57.784Z,81.39
2018-10-17T12:48:06.369Z,82.16
2018-10-17T12:49:15.117Z,80.81
2018-10-17T12:50:23.687Z,79.94
2018-10-17T12:51:32.314Z,79.85
2018-10-17T12:52:41.172Z,79.27
2018-10-17T12:53:50.098Z,78.4
2018-10-17T12:54:58.781Z,77.73
2018-10-17T12:56:07.888Z,78.4
2018-10-17T12:57:16.821Z,78.5
2018-10-17T12:58:25.480Z,78.31
2018-10-17T12:59:34.126Z,79.17
2018-10-17T13:00:42.790Z,79.98
2018-10-17T13:01:51.437Z,79.6
2018-10-17T13:03:00.083Z,80.18
2018-10-17T13:04:08.746Z,79.41
2018-10-17T13:05:17.712Z,80.18
2018-10-17T13:06:26.594Z,80.18
2018-10-17T13:07:35.234Z,79.89
2018-10-17T13:08:43.897Z,79.41
2018-10-17T13:09:52.540Z,79.69
2018-10-17T13:11:01.543Z,79.31
2018-10-17T13:12:10.592Z,79.98
2018-10-17T13:13:19.956Z,80.27
2018-10-17T13:14:29.135Z,80.76
2018-10-17T13:15:38.052Z,80.76
2018-10-17T13:16:46.695Z,81.04
2018-10-17T13:17:55.885Z,81.62
2018-10-17T13:19:04.599Z,82.2
2018-10-17T13:20:14.063Z,82.49
2018-10-17T13:21:22.715Z,82.29
2018-10-17T13:22:31.359Z,81.81
2018-10-17T13:23:40.019Z,82.29
2018-10-17T13:24:48.816Z,82.49
2018-10-17T13:25:57.318Z,82.29
2018-10-17T13:27:05.961Z,82.87
2018-10-17T13:28:14.613Z,81.87
2018-10-17T13:29:23.258Z,81.48
2018-10-17T13:30:31.917Z,81.01
2018-10-17T13:31:40.564Z,79.85
2018-10-17T13:32:49.213Z,78.79
2018-10-17T13:33:57.864Z,79.79
2018-10-17T13:35:06.823Z,81.14
2018-10-17T13:36:15.838Z,79.89
2018-10-17T13:37:24.489Z,80.76
2018-10-17T13:38:33.137Z,81.62
2018-10-17T13:39:41.786Z,82.39
2018-10-17T13:40:50.444Z,82.29
2018-10-17T13:41:59.158Z,82.1
2018-10-17T13:43:08.141Z,82.01
2018-10-17T13:44:16.760Z,81.81
2018-10-17T13:45:25.411Z,82.29
2018-10-17T13:46:34.061Z,83.16
2018-10-17T13:47:42.711Z,83.89
2018-10-17T13:48:51.414Z,84.66
2018-10-17T13:50:00.017Z,84.18
2018-10-17T13:51:08.673Z,84.47
2018-10-17T13:52:17.590Z,84.47
2018-10-17T13:53:26.234Z,84.66
2018-10-17T13:54:35.200Z,85.19
2018-10-17T13:55:44.805Z,85.91
2018-10-17T13:56:53.458Z,86.69
2018-10-17T13:58:02.180Z,86.98
2018-10-17T13:59:10.779Z,87.26
2018-10-17T14:00:20.385Z,87.74
2018-10-17T14:01:29.035Z,87.94
2018-10-17T14:02:37.690Z,87.94
2018-10-17T14:03:46.608Z,88.23
2018-10-17T14:04:55.256Z,88.04
2018-10-17T14:06:04.427Z,87.84
2018-10-17T14:07:13.082Z,87.26
2018-10-17T14:08:22.086Z,87.26
2018-10-17T14:09:30.737Z,87.36
2018-10-17T14:10:39.386Z,87.36
2018-10-17T14:11:48.036Z,87.84
2018-10-17T14:12:56.685Z,87.22
2018-10-17T14:14:05.604Z,87.03
2018-10-17T14:15:14.336Z,86.74
2018-10-17T14:16:23.277Z,86.55
2018-10-17T14:17:31.936Z,87.51
2018-10-17T14:18:40.579Z,87.32
2018-10-17T14:19:49.230Z,87.12
2018-10-17T14:20:57.923Z,87.6
2018-10-17T14:22:07.280Z,85.97
2018-10-17T14:23:15.997Z,85.3
2018-10-17T14:24:24.579Z,86.16
2018-10-17T14:25:33.495Z,85.49
2018-10-17T14:26:42.421Z,84.43
2018-10-17T14:27:51.063Z,84.33
2018-10-17T14:28:59.711Z,84.62
2018-10-17T14:30:08.424Z,83.89
2018-10-17T14:31:17.012Z,81.77
2018-10-17T14:32:25.936Z,81.87
2018-10-17T14:33:34.591Z,82.54
2018-10-17T14:34:43.776Z,83.8
2018-10-17T14:35:52.445Z,84.66
2018-10-17T14:37:01.429Z,85.14
2018-10-17T14:38:10.074Z,84.09
2018-10-17T14:39:19.258Z,85.05
2018-10-17T14:40:27.861Z,84.28
2018-10-17T14:41:36.788Z,83.61
2018-10-17T14:42:45.430Z,85.14
2018-10-17T14:43:54.223Z,83.03
2018-10-17T14:45:02.754Z,83.51
2018-10-17T14:46:11.834Z,84.95